Terminal Aerodrome Forecast
Issued by NWS Cleveland, OH

Home | Current Version | Previous Version | Text Only | Print | Product List | Glossary On
Versions: 1 2 3 4 5 6 7 8 9 10 11 12
000
FTUS41 KCLE 232330
TAFMFD
TAF
KMFD 232330Z 2400/2424 17010KT 6SM -RA OVC040
      TEMPO 2402/2405 5SM -SHRA BKN025
     FM240500 13010KT 5SM -SHRA OVC025
     FM241600 11010KT P6SM -SHRA OVC012=

USA.gov is the U.S. government's official web portal to all federal, state and local government web resources and services.